createdAt,value
2019-05-12T00:00:02.975Z,5.5
2019-05-12T00:05:03.100Z,5.4
2019-05-12T00:10:02.577Z,5.4
2019-05-12T00:15:03.166Z,5.3
2019-05-12T00:20:02.684Z,5.0
2019-05-12T00:25:03.234Z,5.0
2019-05-12T00:30:02.696Z,5.0
2019-05-12T00:35:03.203Z,5.0
2019-05-12T00:40:02.682Z,5.0
2019-05-12T00:45:03.107Z,5.0
2019-05-12T00:50:02.539Z,5.0
2019-05-12T00:55:02.991Z,5.0
2019-05-12T01:00:02.509Z,5.0
2019-05-12T01:05:02.959Z,5.0
2019-05-12T01:10:04.762Z,5.0
2019-05-12T01:15:02.505Z,5.0
2019-05-12T01:20:03.054Z,5.0
2019-05-12T01:25:02.483Z,5.0
2019-05-12T01:30:03.034Z,4.5
2019-05-12T01:35:02.471Z,4.5
2019-05-12T01:40:02.931Z,4.5
2019-05-12T01:45:03.435Z,4.0
2019-05-12T01:50:02.946Z,4.0
2019-05-12T01:55:03.398Z,4.0
2019-05-12T02:00:02.918Z,4.0
2019-05-12T02:05:03.498Z,4.0
2019-05-12T02:10:03.013Z,4.0
2019-05-12T02:15:01.694Z,3.7
2019-05-12T02:20:03.152Z,3.7
2019-05-12T02:25:02.580Z,3.7
2019-05-12T02:30:03.016Z,3.7
2019-05-12T02:35:05.687Z,3.5
2019-05-12T02:40:04.792Z,3.5
2019-05-12T02:45:05.583Z,3.2
2019-05-12T02:50:05.303Z,3.2
2019-05-12T02:55:05.854Z,3.0
2019-05-12T03:00:05.047Z,3.0
2019-05-12T03:05:05.578Z,3.0
2019-05-12T03:10:04.939Z,2.9
2019-05-12T03:15:05.410Z,3.0
2019-05-12T03:20:04.960Z,3.0
2019-05-12T03:25:11.334Z,2.9
2019-05-12T03:30:10.042Z,3.0
2019-05-12T03:35:08.119Z,3.2
2019-05-12T03:40:05.238Z,3.0
2019-05-12T03:46:06.803Z,3.0
2019-05-12T03:50:04.618Z,3.0
2019-05-12T03:55:05.614Z,2.9
2019-05-12T04:00:05.183Z,2.7
2019-05-12T04:05:05.329Z,2.7
2019-05-12T04:10:05.207Z,2.9
2019-05-12T04:15:05.205Z,3.0
2019-05-12T04:20:04.739Z,3.0
2019-05-12T04:25:05.725Z,3.2
2019-05-12T04:31:08.120Z,3.5
2019-05-12T04:35:04.689Z,3.7
2019-05-12T04:40:05.293Z,4.0
2019-05-12T04:45:04.412Z,4.0
2019-05-12T04:50:05.421Z,4.3
2019-05-12T04:55:04.731Z,4.5
2019-05-12T05:00:05.083Z,4.8
2019-05-12T05:05:05.417Z,4.8
2019-05-12T05:10:04.642Z,5.0
2019-05-12T05:15:05.426Z,5.0
2019-05-12T05:20:04.065Z,5.4
2019-05-12T05:25:04.131Z,5.3
2019-05-12T05:30:03.977Z,5.3
2019-05-12T05:35:03.944Z,5.4
2019-05-12T05:40:03.961Z,5.5
2019-05-12T05:45:04.752Z,5.5
2019-05-12T05:50:04.764Z,5.5
2019-05-12T05:55:05.819Z,5.9
2019-05-12T06:00:07.321Z,6.1
2019-05-12T06:05:04.406Z,6.4
2019-05-12T06:10:04.076Z,7.1
2019-05-12T06:15:04.158Z,7.9
2019-05-12T06:20:04.367Z,8.0
2019-05-12T06:25:04.773Z,8.0
2019-05-12T06:30:05.857Z,7.9
2019-05-12T06:35:04.635Z,7.9
2019-05-12T06:40:03.678Z,7.9
2019-05-12T06:45:03.747Z,8.1
2019-05-12T06:50:03.887Z,8.3
2019-05-12T06:55:03.966Z,8.5
2019-05-12T07:00:04.583Z,8.8
2019-05-12T07:05:04.384Z,9.1
2019-05-12T07:10:12.040Z,9.6
2019-05-12T07:15:03.875Z,9.6
2019-05-12T07:20:03.965Z,10.0
2019-05-12T07:25:04.515Z,10.1
2019-05-12T07:30:04.769Z,10.5
2019-05-12T07:35:03.856Z,10.1
2019-05-12T07:40:04.790Z,10.1
2019-05-12T07:45:03.925Z,10.3
2019-05-12T07:50:04.439Z,10.8
2019-05-12T07:55:04.307Z,10.8
2019-05-12T08:00:03.653Z,11.3
2019-05-12T08:05:03.822Z,10.8
2019-05-12T08:10:07.354Z,11.1
2019-05-12T08:15:05.471Z,11.0
2019-05-12T08:20:04.481Z,11.1
2019-05-12T08:25:04.210Z,11.6
2019-05-12T08:30:06.010Z,12.1
2019-05-12T08:35:04.980Z,14.0
2019-05-12T08:40:05.960Z,15.1
2019-05-12T08:45:04.506Z,14.6
2019-05-12T08:50:04.794Z,14.1
2019-05-12T08:55:04.252Z,15.3
2019-05-12T09:00:08.160Z,16.0
2019-05-12T09:05:04.618Z,15.5
2019-05-12T09:10:04.131Z,17.1
2019-05-12T09:15:04.801Z,15.5
2019-05-12T09:20:06.919Z,16.0
2019-05-12T09:25:06.365Z,16.2
2019-05-12T09:30:08.025Z,15.8
2019-05-12T09:35:04.027Z,17.1
2019-05-12T09:40:04.574Z,15.6
2019-05-12T09:45:08.081Z,16.3
2019-05-12T09:50:04.356Z,14.6
2019-05-12T09:55:04.245Z,13.6
2019-05-12T10:00:04.446Z,15.0
2019-05-12T10:07:13.995Z,13.6
2019-05-12T10:10:03.665Z,14.0
2019-05-12T10:15:04.306Z,15.3
2019-05-12T10:20:02.895Z,15.1
2019-05-12T10:25:04.059Z,18.7
2019-05-12T10:30:11.451Z,17.1
2019-05-12T10:35:02.999Z,17.1
2019-05-12T10:40:03.729Z,17.3
2019-05-12T10:45:04.197Z,16.2
2019-05-12T10:50:02.889Z,15.1
2019-05-12T10:55:04.481Z,17.3
2019-05-12T11:00:04.151Z,17.3
2019-05-12T11:05:02.720Z,15.6
2019-05-12T11:15:06.796Z,15.1
2019-05-12T11:20:04.121Z,15.0
2019-05-12T11:25:04.269Z,14.8
2019-05-12T11:30:04.335Z,15.1
2019-05-12T11:35:04.109Z,15.6
2019-05-12T11:40:04.321Z,15.3
2019-05-12T11:45:02.971Z,13.8
2019-05-12T11:50:05.051Z,14.0
2019-05-12T11:55:02.447Z,13.5
2019-05-12T12:00:05.319Z,13.1
2019-05-12T12:05:02.993Z,12.8
2019-05-12T12:10:03.597Z,13.3
2019-05-12T12:15:04.665Z,14.1
2019-05-12T12:20:03.739Z,16.3
2019-05-12T12:30:15.760Z,16.0
2019-05-12T12:35:07.322Z,14.5
2019-05-12T12:40:04.277Z,16.6
2019-05-12T12:45:04.257Z,18.8
2019-05-12T12:50:04.056Z,18.2
2019-05-12T12:55:05.273Z,17.8
2019-05-12T13:00:03.835Z,20.0
2019-05-12T13:05:03.386Z,19.3
2019-05-12T13:10:07.705Z,20.2
2019-05-12T13:15:03.826Z,20.1
2019-05-12T13:20:02.490Z,18.6
2019-05-12T13:25:04.554Z,20.7
2019-05-12T13:30:05.261Z,19.7
2019-05-12T13:35:04.212Z,17.5
2019-05-12T13:40:02.893Z,17.2
2019-05-12T13:45:03.759Z,19.3
2019-05-12T13:50:04.038Z,19.1
2019-05-12T13:55:05.602Z,17.5
2019-05-12T14:00:08.660Z,16.6
2019-05-12T14:05:08.793Z,15.3
2019-05-12T14:10:03.657Z,14.8
2019-05-12T14:15:03.237Z,14.8
2019-05-12T14:20:04.062Z,15.0
2019-05-12T14:25:02.612Z,14.5
2019-05-12T14:30:09.896Z,15.3
2019-05-12T14:35:04.280Z,17.5
2019-05-12T14:40:04.515Z,18.2
2019-05-12T14:45:04.677Z,17.7
2019-05-12T14:50:04.039Z,16.7
2019-05-12T14:55:03.391Z,16.2
2019-05-12T15:00:04.049Z,15.6
2019-05-12T15:05:06.614Z,16.0
2019-05-12T15:10:08.267Z,15.8
2019-05-12T15:15:03.806Z,15.1
2019-05-12T15:20:06.600Z,14.8
2019-05-12T15:25:05.350Z,14.5
2019-05-12T15:30:04.200Z,14.6
2019-05-12T15:35:02.751Z,14.3
2019-05-12T15:40:04.294Z,14.3
2019-05-12T15:45:06.509Z,14.6
2019-05-12T15:50:04.065Z,15.6
2019-05-12T15:55:04.666Z,17.2
2019-05-12T16:00:04.958Z,18.2
2019-05-12T16:05:04.125Z,19.7
2019-05-12T16:10:04.257Z,20.2
2019-05-12T16:15:04.565Z,19.3
2019-05-12T16:20:03.763Z,18.5
2019-05-12T16:25:04.290Z,17.2
2019-05-12T16:30:04.768Z,15.5
2019-05-12T16:35:07.297Z,14.6
2019-05-12T16:40:04.449Z,14.6
2019-05-12T16:45:08.211Z,14.5
2019-05-12T16:50:07.532Z,14.6
2019-05-12T16:55:03.698Z,14.5
2019-05-12T17:00:07.064Z,14.3
2019-05-12T17:05:08.958Z,14.3
2019-05-12T17:10:11.731Z,14.0
2019-05-12T17:15:04.065Z,14.1
2019-05-12T17:20:04.444Z,15.0
2019-05-12T17:25:04.813Z,14.3
2019-05-12T17:30:04.435Z,15.5
2019-05-12T17:35:04.203Z,15.6
2019-05-12T17:40:03.717Z,16.0
2019-05-12T17:45:03.912Z,14.5
2019-05-12T17:50:06.808Z,14.8
2019-05-12T17:55:08.474Z,15.1
2019-05-12T18:00:06.265Z,15.3
2019-05-12T18:05:07.606Z,14.8
2019-05-12T18:10:04.182Z,14.1
2019-05-12T18:15:04.244Z,14.3
2019-05-12T18:20:04.177Z,14.3
2019-05-12T18:25:05.493Z,14.1
2019-05-12T18:30:04.508Z,13.3
2019-05-12T18:35:04.232Z,12.1
2019-05-12T18:40:04.121Z,12.0
2019-05-12T18:45:11.951Z,11.6
2019-05-12T18:50:04.478Z,11.3
2019-05-12T18:55:04.299Z,11.3
2019-05-12T19:00:06.446Z,11.3
2019-05-12T19:05:04.446Z,11.0
2019-05-12T19:10:03.731Z,10.8
2019-05-12T19:15:04.614Z,10.8
2019-05-12T19:20:05.221Z,10.8
2019-05-12T19:25:04.003Z,10.6
2019-05-12T19:30:04.258Z,10.5
2019-05-12T19:35:03.728Z,10.3
2019-05-12T19:40:11.703Z,10.1
2019-05-12T19:47:13.653Z,10.1
2019-05-12T19:50:08.853Z,10.0
2019-05-12T19:55:03.658Z,9.8
2019-05-12T20:00:04.510Z,9.6
2019-05-12T20:05:04.597Z,9.5
2019-05-12T20:10:04.678Z,9.3
2019-05-12T20:15:03.956Z,9.3
2019-05-12T20:20:04.781Z,9.0
2019-05-12T20:25:04.266Z,9.0
2019-05-12T20:30:08.886Z,8.8
2019-05-12T20:35:04.221Z,8.8
2019-05-12T20:40:05.352Z,8.6
2019-05-12T20:45:05.171Z,8.5
2019-05-12T20:50:04.422Z,8.3
2019-05-12T20:55:03.697Z,8.3
2019-05-12T21:00:04.721Z,8.1
2019-05-12T21:05:09.569Z,8.1
2019-05-12T21:10:04.074Z,8.0
2019-05-12T21:15:15.664Z,7.9
2019-05-12T21:20:04.476Z,7.9
2019-05-12T21:25:04.186Z,7.6
2019-05-12T21:30:10.036Z,7.5
2019-05-12T21:35:15.858Z,7.4
2019-05-12T21:40:03.623Z,7.1
2019-05-12T21:45:04.669Z,7.4
2019-05-12T21:50:03.652Z,7.0
2019-05-12T21:55:03.799Z,7.0
2019-05-12T22:00:04.835Z,6.9
2019-05-12T22:05:04.302Z,6.9
2019-05-12T22:10:04.759Z,6.6
2019-05-12T22:15:03.863Z,6.6
2019-05-12T22:20:08.484Z,6.5
2019-05-12T22:25:03.095Z,6.5
2019-05-12T22:30:04.398Z,6.5
2019-05-12T22:35:03.922Z,6.1
2019-05-12T22:40:06.169Z,6.1
2019-05-12T22:45:03.863Z,6.1
2019-05-12T22:50:04.169Z,6.0
2019-05-12T22:55:03.603Z,6.0
2019-05-12T23:00:07.504Z,6.0
2019-05-12T23:05:03.667Z,6.0
2019-05-12T23:10:07.042Z,5.8
2019-05-12T23:15:07.186Z,5.8
2019-05-12T23:20:04.765Z,5.5
2019-05-12T23:25:04.030Z,5.5
2019-05-12T23:30:10.798Z,5.4
2019-05-12T23:35:03.885Z,5.4
2019-05-12T23:40:04.371Z,5.5
2019-05-12T23:45:03.625Z,5.3
2019-05-12T23:50:04.031Z,5.3
2019-05-12T23:55:02.675Z,5.3
